Embakasi Airport


Codes: HKSA/
Name: Embakasi Airport
City: Embakasi
Country: Kenya
Elevation: 5357 ft.

Photos at Embakasi Airport


   Photos courtesy of SpottingLog. You can add your own sightings and photos by signing up for a free trial today.



No photos found.

Weather at Embakasi Airport


Time (UTC)DescriptionTempratureWindCloud coverageVisibilityPressureHumidity
16-Jun-2024 12:00Broken Clouds23°C4 mph, S60%10000m1018hPa55%
16-Jun-2024 15:00Broken Clouds21°C7 mph, E80%10000m1016hPa64%
16-Jun-2024 18:00Overcast Clouds19°C4 mph, NE95%10000m1016hPa69%
16-Jun-2024 21:00Overcast Clouds17°C7 mph, NE93%10000m1017hPa69%
17-Jun-2024 00:00Broken Clouds14°C4 mph, NE67%10000m1017hPa86%
17-Jun-2024 03:00Scattered Clouds14°C2 mph, N32%10000m1019hPa89%
17-Jun-2024 06:00Broken Clouds17°C2 mph, SE53%10000m1019hPa74%
17-Jun-2024 09:00Scattered Clouds22°C7 mph, S46%10000m1017hPa58%
17-Jun-2024 12:00Broken Clouds22°C7 mph, S60%10000m1014hPa58%
17-Jun-2024 15:00Overcast Clouds20°C4 mph, E96%10000m1015hPa68%
17-Jun-2024 18:00Overcast Clouds18°C4 mph, NE95%10000m1017hPa73%
17-Jun-2024 21:00Broken Clouds16°C4 mph, NE55%10000m1017hPa79%
18-Jun-2024 00:00Scattered Clouds14°C0 mph, NE28%10000m1017hPa84%
18-Jun-2024 03:00Clear Sky13°C2 mph, SW4%10000m1018hPa88%
18-Jun-2024 06:00Few Clouds17°C4 mph, S24%10000m1019hPa67%
18-Jun-2024 09:00Overcast Clouds22°C7 mph, S100%10000m1017hPa52%
18-Jun-2024 12:00Overcast Clouds24°C7 mph, SE100%10000m1014hPa43%
18-Jun-2024 15:00Overcast Clouds21°C4 mph, SE100%10000m1015hPa57%
18-Jun-2024 18:00Overcast Clouds17°C4 mph, E100%10000m1018hPa60%
18-Jun-2024 21:00Overcast Clouds16°C4 mph, E95%10000m1018hPa71%
19-Jun-2024 00:00Broken Clouds14°C2 mph, NE55%10000m1017hPa84%
19-Jun-2024 03:00Clear Sky13°C0 mph, NW1%10000m1018hPa88%
19-Jun-2024 06:00Clear Sky18°C2 mph, NW1%10000m1019hPa73%
19-Jun-2024 09:00Clear Sky23°C7 mph, S0%10000m1017hPa51%
19-Jun-2024 12:00Clear Sky24°C9 mph, S7%10000m1013hPa43%
19-Jun-2024 15:00Scattered Clouds21°C7 mph, SE29%10000m1014hPa56%
19-Jun-2024 18:00Scattered Clouds17°C7 mph, E42%10000m1018hPa77%
19-Jun-2024 21:00Scattered Clouds15°C4 mph, NE38%10000m1019hPa92%
20-Jun-2024 00:00Broken Clouds15°C2 mph, NE69%10000m1018hPa94%
20-Jun-2024 03:00Overcast Clouds15°C2 mph, SE99%10000m1019hPa91%
20-Jun-2024 06:00Overcast Clouds17°C7 mph, SE99%10000m1020hPa77%
20-Jun-2024 09:00Light Rain19°C7 mph, SE99%10000m1019hPa72%
20-Jun-2024 12:00Light Rain22°C9 mph, SE99%10000m1015hPa61%
20-Jun-2024 15:00Light Rain19°C7 mph, SE100%10000m1017hPa76%
20-Jun-2024 18:00Light Rain16°C7 mph, E100%10000m1020hPa91%
20-Jun-2024 21:00Light Rain16°C2 mph, E99%10000m1020hPa91%
21-Jun-2024 00:00Light Rain15°C2 mph, NE100%10000m1019hPa95%
21-Jun-2024 03:00Broken Clouds14°C2 mph, E65%10000m1020hPa96%
21-Jun-2024 06:00Broken Clouds17°C2 mph, SE60%10000m1021hPa81%
21-Jun-2024 09:00Scattered Clouds22°C7 mph, SE44%10000m1019hPa58%